Dilidjan, Armenia

5:32 PM AMT on April 25, 2015 (GMT +0400)
Zvartnots | | Change Station
CLOSE
Current Station
Airport
Location: Zvartnots,
Elevation: 2838 ft
Nearby Weather Stations

Elev 2838 ft 40.15 °N, 44.40 °E | Updated 32 minutes ago

Partly Cloudy
Partly Cloudy
61 °F
Feels Like 61 °F
N
4
Wind Variable Wind from SSE

Today
High -- | Low -- °F
--% Chance of Precip.
Yesterday
High -- | Low -- °F
Precip. -- in
6:07 AM 7:49 PM
Waxing Crescent, 46% visible
Pressure 30.15 in
Visibility 6.2 miles
Clouds Few 5000 ft
Dew Point 32 °F
Humidity 34%
Rainfall 0.00 in
Snow Depth Not available.
UV 3 out of 12
Pollen Not available.
Air Quality Not available.
Flu Activity Not available.
METAR UDYZ 251300Z 15002MPS 9999 FEW050 16/M00 Q1021 R09/000070 NOSIG

More Conditions Fewer Conditions

Pressure 30.15 in
Visibility 6.2 miles
Clouds Few 5000 ft
Dew Point 32 °F
Humidity 34%
Rainfall 0.00 in
Snow Depth Not available.
UV 3 out of 12
Pollen Not available.
Air Quality Not available.
Flu Activity Not available.
METAR UDYZ 251300Z 15002MPS 9999 FEW050 16/M00 Q1021 R09/000070 NOSIG

More Conditions Fewer Conditions

10-Day Weather Forecast

Almanac

Astronomy

Apr. 25, 2015 Rise Set
Actual Time
Civil Twilight
Nautical Twilight
Astronomical Twilight
Moon
Length of Visible Light
Length of Day
Tomorrow will be .
, % of the Moon is Illuminated

Today's Extremes

Country Highs Country Lows

Community

WunderPhotos

Upload Photos

1,816,668 photos uploaded!

WunderBlogs® & News

Nearby

Air Quality

  Air Quality AQ Index Pollutant
Not available.

Snow Depth

Station Depth Elevation

Earthquake Activity

City Distance Mag. Time & Date
Minimum magnitude displayed is 2.5.

Coastal Water Temperatures

Place Temperature

Stations

Nearby Weather Stations

Station Location Temp. Windchill Dew Point Humidity Wind Precip. Elev Updated Type